GCEJB EDDL-EGKK
Flight info
| Callsign | GCEJB |
|---|---|
| Flight time | 1h 34m |
| Altitude | 26000 |
| Route | MODRU2H MODRU Z717 MAS UM617 SOGRI DCT DENUT L610 TEBRA |
| Aircraft | P46T/L-SBDGRWY/SB1 |
Departure
| Time | 2026-05-04 20:17 |
|---|---|
| Airport | Düsseldorf Airport (EDDL) |
Arrival
| Time | 2026-05-04 21:52 |
|---|---|
| Airport | London Gatwick Airport (EGKK) |
| Time | Latitude | Longitude | Altitude | Speed | Heading |
|---|---|---|---|---|---|
| 2026-05-04 19:15 | 51.27582 | 6.75221 | 113 ft | 0 kts | 73° |
| 2026-05-04 19:28 | 51.27582 | 6.75220 | 113 ft | 0 kts | 73° |
| 2026-05-04 19:46 | 51.27582 | 6.75219 | 113 ft | 0 kts | 73° |
| 2026-05-04 19:51 | 51.27581 | 6.75219 | 113 ft | 0 kts | 73° |
| 2026-05-04 19:51 | 51.27614 | 6.75213 | 113 ft | 8 kts | 339° |
| 2026-05-04 19:52 | 51.27660 | 6.75186 | 111 ft | 7 kts | 10° |
| 2026-05-04 19:52 | 51.27710 | 6.75199 | 113 ft | 11 kts | 3° |
| 2026-05-04 19:52 | 51.27762 | 6.75249 | 113 ft | 8 kts | 53° |
| 2026-05-04 19:52 | 51.27779 | 6.75284 | 113 ft | 0 kts | 53° |
| 2026-05-04 19:55 | 51.27780 | 6.75286 | 113 ft | 2 kts | 54° |
| 2026-05-04 19:55 | 51.27807 | 6.75341 | 113 ft | 11 kts | 51° |
| 2026-05-04 19:56 | 51.27852 | 6.75436 | 113 ft | 10 kts | 53° |
| 2026-05-04 19:56 | 51.27894 | 6.75527 | 113 ft | 10 kts | 54° |
| 2026-05-04 19:56 | 51.27931 | 6.75603 | 113 ft | 6 kts | 51° |
| 2026-05-04 19:56 | 51.27959 | 6.75659 | 113 ft | 7 kts | 49° |
| 2026-05-04 19:57 | 51.27987 | 6.75722 | 113 ft | 7 kts | 54° |
| 2026-05-04 19:57 | 51.28019 | 6.75788 | 113 ft | 8 kts | 51° |
| 2026-05-04 19:57 | 51.28053 | 6.75861 | 113 ft | 8 kts | 52° |
| 2026-05-04 19:57 | 51.28089 | 6.75936 | 113 ft | 9 kts | 52° |
| 2026-05-04 19:58 | 51.28136 | 6.76034 | 113 ft | 16 kts | 52° |
| 2026-05-04 19:58 | 51.28217 | 6.76204 | 113 ft | 19 kts | 52° |
| 2026-05-04 19:58 | 51.28294 | 6.76366 | 113 ft | 18 kts | 54° |
| 2026-05-04 19:58 | 51.28365 | 6.76515 | 113 ft | 16 kts | 53° |
| 2026-05-04 19:59 | 51.28431 | 6.76654 | 113 ft | 15 kts | 53° |
| 2026-05-04 19:59 | 51.28493 | 6.76784 | 113 ft | 16 kts | 53° |
| 2026-05-04 19:59 | 51.28573 | 6.76954 | 113 ft | 20 kts | 52° |
| 2026-05-04 19:59 | 51.28659 | 6.77130 | 113 ft | 20 kts | 53° |
| 2026-05-04 20:00 | 51.28743 | 6.77303 | 113 ft | 20 kts | 55° |
| 2026-05-04 20:00 | 51.28826 | 6.77481 | 113 ft | 20 kts | 54° |
| 2026-05-04 20:00 | 51.28906 | 6.77651 | 112 ft | 20 kts | 50° |
| 2026-05-04 20:00 | 51.28990 | 6.77826 | 112 ft | 18 kts | 52° |
| 2026-05-04 20:01 | 51.29069 | 6.77990 | 113 ft | 15 kts | 52° |
| 2026-05-04 20:01 | 51.29131 | 6.78122 | 113 ft | 6 kts | 52° |
| 2026-05-04 20:01 | 51.29132 | 6.78125 | 113 ft | 0 kts | 52° |
| 2026-05-04 20:01 | 51.29137 | 6.78135 | 113 ft | 5 kts | 52° |
| 2026-05-04 20:02 | 51.29165 | 6.78189 | 113 ft | 9 kts | 38° |
| 2026-05-04 20:02 | 51.29231 | 6.78210 | 113 ft | 8 kts | 349° |
| 2026-05-04 20:02 | 51.29261 | 6.78188 | 113 ft | 0 kts | 323° |
| 2026-05-04 20:14 | 51.29262 | 6.78187 | 113 ft | 2 kts | 321° |
| 2026-05-04 20:14 | 51.29293 | 6.78133 | 114 ft | 12 kts | 298° |
| 2026-05-04 20:15 | 51.29294 | 6.78000 | 113 ft | 12 kts | 243° |
| 2026-05-04 20:15 | 51.29280 | 6.77966 | 115 ft | 0 kts | 233° |
| 2026-05-04 20:16 | 51.29270 | 6.77945 | 114 ft | 14 kts | 228° |
| 2026-05-04 20:17 | 51.29085 | 6.77552 | 113 ft | 73 kts | 234° |
| 2026-05-04 20:17 | 51.28702 | 6.76758 | 243 ft | 99 kts | 234° |
| 2026-05-04 20:17 | 51.28285 | 6.75854 | 623 ft | 101 kts | 234° |
| 2026-05-04 20:17 | 51.27834 | 6.74972 | 986 ft | 108 kts | 230° |
| 2026-05-04 20:18 | 51.27340 | 6.73925 | 1275 ft | 130 kts | 233° |
| 2026-05-04 20:18 | 51.26755 | 6.72667 | 1588 ft | 144 kts | 232° |
| 2026-05-04 20:18 | 51.26170 | 6.71391 | 2134 ft | 143 kts | 233° |
| 2026-05-04 20:18 | 51.25572 | 6.70133 | 2670 ft | 140 kts | 231° |
| 2026-05-04 20:19 | 51.24994 | 6.68913 | 3226 ft | 139 kts | 234° |
| 2026-05-04 20:19 | 51.24461 | 6.67585 | 3664 ft | 145 kts | 237° |
| 2026-05-04 20:19 | 51.23921 | 6.66255 | 4209 ft | 142 kts | 239° |
| 2026-05-04 20:19 | 51.23647 | 6.64719 | 4656 ft | 148 kts | 265° |
| 2026-05-04 20:20 | 51.23777 | 6.63128 | 5141 ft | 154 kts | 285° |
| 2026-05-04 20:20 | 51.24387 | 6.61469 | 5066 ft | 190 kts | 313° |
| 2026-05-04 20:20 | 51.25487 | 6.60169 | 5048 ft | 203 kts | 326° |
| 2026-05-04 20:20 | 51.26691 | 6.58897 | 5006 ft | 209 kts | 325° |
| 2026-05-04 20:21 | 51.27876 | 6.57627 | 4975 ft | 203 kts | 324° |
| 2026-05-04 20:21 | 51.29043 | 6.56406 | 4908 ft | 200 kts | 326° |
| 2026-05-04 20:21 | 51.31031 | 6.53541 | 4993 ft | 189 kts | 312° |
| 2026-05-04 20:22 | 51.31974 | 6.52127 | 5004 ft | 189 kts | 319° |
| 2026-05-04 20:22 | 51.32984 | 6.50825 | 5175 ft | 178 kts | 321° |
| 2026-05-04 20:22 | 51.33888 | 6.49662 | 5658 ft | 157 kts | 320° |
| 2026-05-04 20:22 | 51.34739 | 6.48559 | 5861 ft | 160 kts | 321° |
| 2026-05-04 20:23 | 51.35608 | 6.47442 | 6101 ft | 162 kts | 321° |
| 2026-05-04 20:23 | 51.36480 | 6.46311 | 6610 ft | 161 kts | 321° |
| 2026-05-04 20:23 | 51.37352 | 6.45194 | 7083 ft | 160 kts | 321° |
| 2026-05-04 20:23 | 51.38024 | 6.43803 | 7485 ft | 160 kts | 284° |
| 2026-05-04 20:24 | 51.37925 | 6.42069 | 7894 ft | 159 kts | 245° |
| 2026-05-04 20:24 | 51.37395 | 6.40505 | 8338 ft | 161 kts | 240° |
| 2026-05-04 20:24 | 51.36850 | 6.38932 | 8809 ft | 162 kts | 240° |
| 2026-05-04 20:24 | 51.36304 | 6.37336 | 9262 ft | 164 kts | 240° |
| 2026-05-04 20:25 | 51.35752 | 6.35721 | 9746 ft | 165 kts | 241° |
| 2026-05-04 20:25 | 51.35195 | 6.34099 | 10183 ft | 167 kts | 241° |
| 2026-05-04 20:25 | 51.34636 | 6.32474 | 10600 ft | 167 kts | 241° |
| 2026-05-04 20:25 | 51.34077 | 6.30842 | 11003 ft | 168 kts | 240° |
| 2026-05-04 20:26 | 51.33513 | 6.29197 | 11409 ft | 169 kts | 240° |
| 2026-05-04 20:26 | 51.32879 | 6.27622 | 11794 ft | 169 kts | 225° |
| 2026-05-04 20:26 | 51.31904 | 6.26598 | 12215 ft | 168 kts | 201° |
| 2026-05-04 20:26 | 51.30803 | 6.25964 | 12638 ft | 169 kts | 200° |
| 2026-05-04 20:27 | 51.29710 | 6.25316 | 13083 ft | 170 kts | 200° |
| 2026-05-04 20:27 | 51.28599 | 6.24660 | 13536 ft | 170 kts | 200° |
| 2026-05-04 20:27 | 51.27485 | 6.24007 | 13942 ft | 171 kts | 200° |
| 2026-05-04 20:27 | 51.26367 | 6.23352 | 14343 ft | 171 kts | 200° |
| 2026-05-04 20:28 | 51.25249 | 6.22697 | 14733 ft | 172 kts | 200° |
| 2026-05-04 20:28 | 51.24125 | 6.22039 | 15135 ft | 172 kts | 200° |
| 2026-05-04 20:28 | 51.23002 | 6.21380 | 15529 ft | 172 kts | 200° |
| 2026-05-04 20:28 | 51.21875 | 6.20720 | 15928 ft | 172 kts | 200° |
| 2026-05-04 20:29 | 51.20747 | 6.20061 | 16320 ft | 173 kts | 200° |
| 2026-05-04 20:29 | 51.19616 | 6.19399 | 16715 ft | 173 kts | 200° |
| 2026-05-04 20:29 | 51.18480 | 6.18735 | 17109 ft | 174 kts | 200° |
| 2026-05-04 20:29 | 51.17343 | 6.18071 | 17510 ft | 174 kts | 200° |
| 2026-05-04 20:30 | 51.16202 | 6.17405 | 17901 ft | 175 kts | 200° |
| 2026-05-04 20:30 | 51.15058 | 6.16738 | 18295 ft | 175 kts | 200° |
| 2026-05-04 20:30 | 51.13926 | 6.16078 | 18649 ft | 176 kts | 200° |
| 2026-05-04 20:30 | 51.12776 | 6.15407 | 18995 ft | 176 kts | 201° |
| 2026-05-04 20:31 | 51.11627 | 6.14735 | 19315 ft | 176 kts | 200° |
| 2026-05-04 20:31 | 51.10469 | 6.14064 | 19622 ft | 177 kts | 200° |
| 2026-05-04 20:31 | 51.09306 | 6.13388 | 19956 ft | 178 kts | 200° |
| 2026-05-04 20:31 | 51.08144 | 6.12713 | 20265 ft | 178 kts | 200° |
| 2026-05-04 20:32 | 51.06980 | 6.12036 | 20579 ft | 179 kts | 201° |
| 2026-05-04 20:32 | 51.05810 | 6.11356 | 20895 ft | 179 kts | 200° |
| 2026-05-04 20:32 | 51.04640 | 6.10676 | 21208 ft | 180 kts | 200° |
| 2026-05-04 20:32 | 51.03506 | 6.10021 | 21821 ft | 163 kts | 200° |
| 2026-05-04 20:33 | 51.02472 | 6.09362 | 22271 ft | 160 kts | 209° |
| 2026-05-04 20:33 | 51.01594 | 6.08249 | 22634 ft | 163 kts | 225° |
| 2026-05-04 20:33 | 51.00963 | 6.06764 | 22995 ft | 167 kts | 238° |
| 2026-05-04 20:33 | 51.00402 | 6.05156 | 23355 ft | 167 kts | 236° |
| 2026-05-04 20:34 | 50.99827 | 6.03541 | 23702 ft | 168 kts | 237° |
| 2026-05-04 20:34 | 50.99257 | 6.01918 | 24037 ft | 168 kts | 237° |
| 2026-05-04 20:34 | 50.98689 | 6.00300 | 24371 ft | 167 kts | 237° |
| 2026-05-04 20:34 | 50.98123 | 5.98683 | 24691 ft | 168 kts | 236° |
| 2026-05-04 20:35 | 50.97554 | 5.97064 | 25038 ft | 168 kts | 236° |
| 2026-05-04 20:35 | 50.97065 | 5.95355 | 25322 ft | 175 kts | 249° |
| 2026-05-04 20:35 | 50.96753 | 5.93468 | 25571 ft | 178 kts | 249° |
| 2026-05-04 20:35 | 50.96408 | 5.91561 | 25832 ft | 181 kts | 248° |
| 2026-05-04 20:36 | 50.96057 | 5.89601 | 25970 ft | 191 kts | 249° |
| 2026-05-04 20:36 | 50.95687 | 5.87508 | 25976 ft | 202 kts | 249° |
| 2026-05-04 20:36 | 50.95300 | 5.85306 | 25978 ft | 213 kts | 250° |
| 2026-05-04 20:36 | 50.94894 | 5.83006 | 25978 ft | 221 kts | 250° |
| 2026-05-04 20:37 | 50.94474 | 5.80630 | 25978 ft | 226 kts | 250° |
| 2026-05-04 20:37 | 50.94043 | 5.78204 | 25975 ft | 231 kts | 250° |
| 2026-05-04 20:37 | 50.93605 | 5.75738 | 25978 ft | 233 kts | 250° |
| 2026-05-04 20:37 | 50.93162 | 5.73250 | 25977 ft | 236 kts | 250° |
| 2026-05-04 20:38 | 50.92713 | 5.70737 | 25977 ft | 238 kts | 250° |
| 2026-05-04 20:38 | 50.92261 | 5.68211 | 25978 ft | 239 kts | 250° |
| 2026-05-04 20:38 | 50.91806 | 5.65673 | 25980 ft | 240 kts | 250° |
| 2026-05-04 20:38 | 50.91335 | 5.63129 | 25977 ft | 241 kts | 249° |
| 2026-05-04 20:39 | 50.90865 | 5.60581 | 25975 ft | 242 kts | 250° |
| 2026-05-04 20:39 | 50.90412 | 5.58043 | 25976 ft | 243 kts | 250° |
| 2026-05-04 20:39 | 50.89952 | 5.55470 | 25977 ft | 243 kts | 250° |
| 2026-05-04 20:39 | 50.89486 | 5.52891 | 25974 ft | 243 kts | 250° |
| 2026-05-04 20:40 | 50.89021 | 5.50318 | 25974 ft | 244 kts | 250° |
| 2026-05-04 20:40 | 50.88554 | 5.47733 | 25975 ft | 244 kts | 250° |
| 2026-05-04 20:40 | 50.88085 | 5.45152 | 25974 ft | 244 kts | 250° |
| 2026-05-04 20:40 | 50.87616 | 5.42566 | 25975 ft | 244 kts | 250° |
| 2026-05-04 20:41 | 50.87145 | 5.39974 | 25974 ft | 245 kts | 250° |
| 2026-05-04 20:41 | 50.86674 | 5.37392 | 25973 ft | 245 kts | 250° |
| 2026-05-04 20:41 | 50.86201 | 5.34792 | 25975 ft | 245 kts | 250° |
| 2026-05-04 20:41 | 50.85726 | 5.32195 | 25968 ft | 246 kts | 250° |
| 2026-05-04 20:42 | 50.85251 | 5.29595 | 25970 ft | 246 kts | 250° |
| 2026-05-04 20:42 | 50.84774 | 5.26998 | 25972 ft | 246 kts | 250° |
| 2026-05-04 20:42 | 50.84298 | 5.24390 | 25973 ft | 246 kts | 250° |
| 2026-05-04 20:42 | 50.83820 | 5.21786 | 25967 ft | 246 kts | 250° |
| 2026-05-04 20:43 | 50.83349 | 5.19218 | 25971 ft | 246 kts | 250° |
| 2026-05-04 20:43 | 50.82869 | 5.16618 | 25970 ft | 246 kts | 250° |
| 2026-05-04 20:43 | 50.82389 | 5.14016 | 25968 ft | 246 kts | 250° |
| 2026-05-04 20:43 | 50.81908 | 5.11410 | 25968 ft | 247 kts | 250° |
| 2026-05-04 20:44 | 50.81534 | 5.09390 | 25969 ft | 247 kts | 250° |
| 2026-05-04 20:44 | 50.81165 | 5.06794 | 25966 ft | 249 kts | 261° |
| 2026-05-04 20:44 | 50.81201 | 5.04040 | 25962 ft | 254 kts | 274° |
| 2026-05-04 20:44 | 50.81667 | 5.01331 | 25960 ft | 258 kts | 288° |
| 2026-05-04 20:45 | 50.82467 | 4.98772 | 25962 ft | 260 kts | 293° |
| 2026-05-04 20:45 | 50.83280 | 4.96218 | 25967 ft | 260 kts | 292° |
| 2026-05-04 20:45 | 50.84093 | 4.93656 | 25970 ft | 261 kts | 293° |
| 2026-05-04 20:45 | 50.84905 | 4.91089 | 25972 ft | 261 kts | 292° |
| 2026-05-04 20:46 | 50.85721 | 4.88502 | 25973 ft | 263 kts | 293° |
| 2026-05-04 20:46 | 50.86539 | 4.85923 | 25973 ft | 262 kts | 293° |
| 2026-05-04 20:46 | 50.87357 | 4.83341 | 25973 ft | 261 kts | 293° |
| 2026-05-04 20:46 | 50.88166 | 4.80771 | 25973 ft | 261 kts | 293° |
| 2026-05-04 20:47 | 50.88977 | 4.78197 | 25975 ft | 261 kts | 293° |
| 2026-05-04 20:47 | 50.89788 | 4.75622 | 25973 ft | 261 kts | 293° |
| 2026-05-04 20:47 | 50.90599 | 4.73047 | 25975 ft | 261 kts | 294° |
| 2026-05-04 20:47 | 50.91407 | 4.70478 | 25976 ft | 261 kts | 294° |
| 2026-05-04 20:48 | 50.92215 | 4.67904 | 25975 ft | 260 kts | 294° |
| 2026-05-04 20:48 | 50.93020 | 4.65335 | 25974 ft | 260 kts | 294° |
| 2026-05-04 20:48 | 50.93825 | 4.62765 | 25972 ft | 260 kts | 294° |
| 2026-05-04 20:48 | 50.94614 | 4.60236 | 25974 ft | 259 kts | 293° |
| 2026-05-04 20:49 | 50.95402 | 4.57687 | 25972 ft | 258 kts | 294° |
| 2026-05-04 20:49 | 50.96201 | 4.55157 | 25968 ft | 254 kts | 294° |
| 2026-05-04 20:49 | 50.96991 | 4.52646 | 25966 ft | 255 kts | 294° |
| 2026-05-04 20:49 | 50.97778 | 4.50116 | 25965 ft | 256 kts | 294° |
| 2026-05-04 20:50 | 50.98563 | 4.47582 | 25965 ft | 256 kts | 294° |
| 2026-05-04 20:50 | 50.99361 | 4.45035 | 25970 ft | 259 kts | 294° |
| 2026-05-04 20:50 | 50.99900 | 4.43302 | 25968 ft | 261 kts | 294° |
| 2026-05-04 20:50 | 51.00701 | 4.40719 | 25970 ft | 262 kts | 294° |
| 2026-05-04 20:51 | 51.01490 | 4.38158 | 25971 ft | 260 kts | 294° |
| 2026-05-04 20:51 | 51.02287 | 4.35574 | 25971 ft | 260 kts | 294° |
| 2026-05-04 20:51 | 51.03090 | 4.33004 | 25973 ft | 261 kts | 294° |
| 2026-05-04 20:51 | 51.03891 | 4.30420 | 25973 ft | 261 kts | 294° |
| 2026-05-04 20:52 | 51.04701 | 4.27806 | 25974 ft | 264 kts | 294° |
| 2026-05-04 20:52 | 51.05497 | 4.25200 | 25974 ft | 260 kts | 294° |
| 2026-05-04 20:52 | 51.06293 | 4.22622 | 25971 ft | 260 kts | 294° |
| 2026-05-04 20:52 | 51.07083 | 4.20044 | 25969 ft | 257 kts | 294° |
| 2026-05-04 20:53 | 51.07870 | 4.17485 | 25969 ft | 259 kts | 294° |
| 2026-05-04 20:53 | 51.08676 | 4.14889 | 25971 ft | 264 kts | 294° |
| 2026-05-04 20:53 | 51.09485 | 4.12265 | 25975 ft | 264 kts | 294° |
| 2026-05-04 20:53 | 51.10290 | 4.09644 | 25975 ft | 262 kts | 294° |
| 2026-05-04 20:54 | 51.11087 | 4.07030 | 25971 ft | 262 kts | 294° |
| 2026-05-04 20:54 | 51.11869 | 4.04458 | 25972 ft | 261 kts | 294° |
| 2026-05-04 20:54 | 51.12662 | 4.01858 | 25972 ft | 261 kts | 294° |
| 2026-05-04 20:54 | 51.13456 | 3.99264 | 25968 ft | 261 kts | 294° |
| 2026-05-04 20:55 | 51.14254 | 3.96685 | 25970 ft | 260 kts | 294° |
| 2026-05-04 20:55 | 51.15044 | 3.94076 | 25971 ft | 261 kts | 294° |
| 2026-05-04 20:55 | 51.15824 | 3.91482 | 25970 ft | 259 kts | 294° |
| 2026-05-04 20:55 | 51.16612 | 3.88890 | 25972 ft | 259 kts | 294° |
| 2026-05-04 20:56 | 51.17401 | 3.86299 | 25973 ft | 259 kts | 293° |
| 2026-05-04 20:56 | 51.18186 | 3.83711 | 25974 ft | 259 kts | 294° |
| 2026-05-04 20:56 | 51.18959 | 3.81158 | 25972 ft | 259 kts | 294° |
| 2026-05-04 20:56 | 51.19743 | 3.78572 | 25972 ft | 259 kts | 293° |
| 2026-05-04 20:57 | 51.20521 | 3.75995 | 25976 ft | 258 kts | 293° |
| 2026-05-04 20:57 | 51.21301 | 3.73414 | 25974 ft | 258 kts | 294° |
| 2026-05-04 20:57 | 51.22079 | 3.70836 | 25978 ft | 258 kts | 293° |
| 2026-05-04 20:57 | 51.22857 | 3.68252 | 25979 ft | 258 kts | 293° |
| 2026-05-04 20:58 | 51.23591 | 3.65650 | 25978 ft | 257 kts | 287° |
| 2026-05-04 20:58 | 51.23994 | 3.62891 | 25979 ft | 255 kts | 279° |
| 2026-05-04 20:58 | 51.24353 | 3.60120 | 25981 ft | 255 kts | 280° |
| 2026-05-04 20:58 | 51.24726 | 3.57362 | 25980 ft | 254 kts | 280° |
| 2026-05-04 20:59 | 51.25099 | 3.54603 | 25980 ft | 254 kts | 279° |
| 2026-05-04 20:59 | 51.25464 | 3.51842 | 25980 ft | 254 kts | 279° |
| 2026-05-04 20:59 | 51.25828 | 3.49081 | 25978 ft | 254 kts | 280° |
| 2026-05-04 20:59 | 51.26194 | 3.46327 | 25984 ft | 254 kts | 279° |
| 2026-05-04 21:00 | 51.26560 | 3.43564 | 25985 ft | 254 kts | 279° |
| 2026-05-04 21:00 | 51.26917 | 3.40846 | 25987 ft | 253 kts | 279° |
| 2026-05-04 21:00 | 51.27276 | 3.38093 | 25983 ft | 254 kts | 279° |
| 2026-05-04 21:00 | 51.27631 | 3.35335 | 25991 ft | 253 kts | 279° |
| 2026-05-04 21:01 | 51.27986 | 3.32574 | 25995 ft | 253 kts | 279° |
| 2026-05-04 21:01 | 51.28341 | 3.29819 | 25992 ft | 253 kts | 279° |
| 2026-05-04 21:01 | 51.28695 | 3.27068 | 25995 ft | 253 kts | 279° |
| 2026-05-04 21:01 | 51.29047 | 3.24313 | 25997 ft | 253 kts | 279° |
| 2026-05-04 21:02 | 51.29400 | 3.21558 | 25999 ft | 253 kts | 279° |
| 2026-05-04 21:02 | 51.29752 | 3.18802 | 26007 ft | 253 kts | 279° |
| 2026-05-04 21:02 | 51.30102 | 3.16052 | 26009 ft | 253 kts | 279° |
| 2026-05-04 21:02 | 51.30452 | 3.13300 | 26011 ft | 252 kts | 278° |
| 2026-05-04 21:03 | 51.30802 | 3.10549 | 26016 ft | 252 kts | 279° |
| 2026-05-04 21:03 | 51.31150 | 3.07798 | 26017 ft | 252 kts | 278° |
| 2026-05-04 21:03 | 51.31467 | 3.05283 | 26019 ft | 252 kts | 279° |
| 2026-05-04 21:03 | 51.31814 | 3.02530 | 26021 ft | 252 kts | 278° |
| 2026-05-04 21:04 | 51.32161 | 2.99782 | 26023 ft | 252 kts | 278° |
| 2026-05-04 21:04 | 51.32507 | 2.97030 | 26021 ft | 252 kts | 278° |
| 2026-05-04 21:04 | 51.32852 | 2.94280 | 26027 ft | 252 kts | 278° |
| 2026-05-04 21:04 | 51.33195 | 2.91528 | 26023 ft | 253 kts | 278° |
| 2026-05-04 21:05 | 51.33540 | 2.88774 | 26025 ft | 253 kts | 278° |
| 2026-05-04 21:05 | 51.33884 | 2.86023 | 26023 ft | 252 kts | 278° |
| 2026-05-04 21:05 | 51.34225 | 2.83270 | 26025 ft | 252 kts | 278° |
| 2026-05-04 21:05 | 51.34567 | 2.80519 | 26024 ft | 252 kts | 278° |
| 2026-05-04 21:06 | 51.34909 | 2.77764 | 26023 ft | 252 kts | 278° |
| 2026-05-04 21:06 | 51.35249 | 2.75011 | 26022 ft | 252 kts | 278° |
| 2026-05-04 21:06 | 51.35587 | 2.72263 | 26022 ft | 252 kts | 278° |
| 2026-05-04 21:06 | 51.35930 | 2.69510 | 26022 ft | 252 kts | 278° |
| 2026-05-04 21:07 | 51.36272 | 2.66757 | 26022 ft | 252 kts | 278° |
| 2026-05-04 21:07 | 51.36610 | 2.64000 | 26020 ft | 253 kts | 278° |
| 2026-05-04 21:07 | 51.36948 | 2.61242 | 26017 ft | 253 kts | 277° |
| 2026-05-04 21:07 | 51.37287 | 2.58483 | 26021 ft | 253 kts | 278° |
| 2026-05-04 21:08 | 51.37621 | 2.55760 | 26022 ft | 253 kts | 278° |
| 2026-05-04 21:08 | 51.37959 | 2.52997 | 26020 ft | 253 kts | 278° |
| 2026-05-04 21:08 | 51.38295 | 2.50240 | 26020 ft | 253 kts | 277° |
| 2026-05-04 21:08 | 51.38631 | 2.47476 | 26019 ft | 253 kts | 278° |
| 2026-05-04 21:09 | 51.38967 | 2.44718 | 26021 ft | 253 kts | 278° |
| 2026-05-04 21:09 | 51.39301 | 2.41955 | 26019 ft | 253 kts | 277° |
| 2026-05-04 21:09 | 51.39635 | 2.39194 | 26020 ft | 253 kts | 277° |
| 2026-05-04 21:09 | 51.39968 | 2.36434 | 26022 ft | 252 kts | 278° |
| 2026-05-04 21:10 | 51.40300 | 2.33678 | 26019 ft | 252 kts | 278° |
| 2026-05-04 21:10 | 51.40633 | 2.30919 | 26019 ft | 252 kts | 278° |
| 2026-05-04 21:10 | 51.40963 | 2.28158 | 26023 ft | 252 kts | 277° |
| 2026-05-04 21:10 | 51.41292 | 2.25400 | 26022 ft | 252 kts | 278° |
| 2026-05-04 21:11 | 51.41630 | 2.22647 | 26023 ft | 252 kts | 278° |
| 2026-05-04 21:11 | 51.41971 | 2.19891 | 26024 ft | 252 kts | 278° |
| 2026-05-04 21:11 | 51.42309 | 2.17131 | 26023 ft | 252 kts | 278° |
| 2026-05-04 21:11 | 51.42644 | 2.14374 | 26026 ft | 252 kts | 278° |
| 2026-05-04 21:12 | 51.42980 | 2.11616 | 26026 ft | 252 kts | 278° |
| 2026-05-04 21:12 | 51.43314 | 2.08861 | 26027 ft | 252 kts | 278° |
| 2026-05-04 21:12 | 51.43644 | 2.06133 | 26026 ft | 252 kts | 278° |
| 2026-05-04 21:12 | 51.43979 | 2.03371 | 26027 ft | 252 kts | 278° |
| 2026-05-04 21:13 | 51.44313 | 2.00605 | 26029 ft | 253 kts | 278° |
| 2026-05-04 21:13 | 51.44645 | 1.97838 | 26032 ft | 252 kts | 278° |
| 2026-05-04 21:13 | 51.44969 | 1.95076 | 26033 ft | 252 kts | 277° |
| 2026-05-04 21:13 | 51.45294 | 1.92312 | 26034 ft | 252 kts | 278° |
| 2026-05-04 21:14 | 51.45620 | 1.89543 | 26034 ft | 253 kts | 277° |
| 2026-05-04 21:14 | 51.45946 | 1.86771 | 26031 ft | 253 kts | 277° |
| 2026-05-04 21:14 | 51.46269 | 1.84000 | 26035 ft | 252 kts | 277° |
| 2026-05-04 21:14 | 51.46584 | 1.81273 | 26035 ft | 252 kts | 277° |
| 2026-05-04 21:15 | 51.46902 | 1.78514 | 26038 ft | 252 kts | 277° |
| 2026-05-04 21:15 | 51.47224 | 1.75746 | 26038 ft | 252 kts | 277° |
| 2026-05-04 21:15 | 51.47542 | 1.72984 | 26039 ft | 252 kts | 277° |
| 2026-05-04 21:15 | 51.47861 | 1.70216 | 26038 ft | 252 kts | 278° |
| 2026-05-04 21:16 | 51.48180 | 1.67444 | 26038 ft | 253 kts | 277° |
| 2026-05-04 21:16 | 51.48497 | 1.64667 | 26044 ft | 253 kts | 277° |
| 2026-05-04 21:16 | 51.48678 | 1.61881 | 26040 ft | 250 kts | 265° |
| 2026-05-04 21:16 | 51.48409 | 1.59152 | 26042 ft | 248 kts | 251° |
| 2026-05-04 21:17 | 51.47824 | 1.56563 | 26040 ft | 247 kts | 247° |
| 2026-05-04 21:17 | 51.47232 | 1.53976 | 26041 ft | 247 kts | 248° |
| 2026-05-04 21:17 | 51.46648 | 1.51398 | 25791 ft | 246 kts | 248° |
| 2026-05-04 21:17 | 51.46059 | 1.48828 | 25312 ft | 244 kts | 248° |
| 2026-05-04 21:18 | 51.45469 | 1.46275 | 24751 ft | 244 kts | 248° |
| 2026-05-04 21:18 | 51.44881 | 1.43732 | 24235 ft | 242 kts | 248° |
| 2026-05-04 21:18 | 51.44300 | 1.41212 | 23739 ft | 241 kts | 248° |
| 2026-05-04 21:18 | 51.43641 | 1.38764 | 23148 ft | 238 kts | 238° |
| 2026-05-04 21:19 | 51.42639 | 1.36677 | 22593 ft | 236 kts | 225° |
| 2026-05-04 21:19 | 51.41394 | 1.35041 | 22043 ft | 234 kts | 216° |
| 2026-05-04 21:19 | 51.40077 | 1.33504 | 21517 ft | 234 kts | 216° |
| 2026-05-04 21:19 | 51.38768 | 1.31941 | 21139 ft | 230 kts | 216° |
| 2026-05-04 21:20 | 51.37493 | 1.30429 | 20887 ft | 232 kts | 216° |
| 2026-05-04 21:20 | 51.36188 | 1.28886 | 20636 ft | 234 kts | 216° |
| 2026-05-04 21:20 | 51.34880 | 1.27339 | 20386 ft | 234 kts | 216° |
| 2026-05-04 21:20 | 51.33567 | 1.25787 | 20145 ft | 235 kts | 216° |
| 2026-05-04 21:21 | 51.32254 | 1.24236 | 19893 ft | 235 kts | 216° |
| 2026-05-04 21:21 | 51.30939 | 1.22684 | 19648 ft | 235 kts | 216° |
| 2026-05-04 21:21 | 51.29619 | 1.21128 | 19406 ft | 235 kts | 216° |
| 2026-05-04 21:21 | 51.28301 | 1.19576 | 19166 ft | 235 kts | 216° |
| 2026-05-04 21:22 | 51.26984 | 1.18024 | 18926 ft | 235 kts | 216° |
| 2026-05-04 21:22 | 51.25667 | 1.16473 | 18691 ft | 235 kts | 216° |
| 2026-05-04 21:22 | 51.24350 | 1.14925 | 18457 ft | 235 kts | 215° |
| 2026-05-04 21:22 | 51.23030 | 1.13373 | 18202 ft | 235 kts | 215° |
| 2026-05-04 21:23 | 51.21713 | 1.11828 | 17926 ft | 235 kts | 215° |
| 2026-05-04 21:23 | 51.20412 | 1.10302 | 17666 ft | 235 kts | 215° |
| 2026-05-04 21:23 | 51.19097 | 1.08760 | 17401 ft | 233 kts | 215° |
| 2026-05-04 21:23 | 51.17799 | 1.07239 | 17131 ft | 231 kts | 215° |
| 2026-05-04 21:24 | 51.16506 | 1.05725 | 16871 ft | 230 kts | 215° |
| 2026-05-04 21:24 | 51.15219 | 1.04220 | 16608 ft | 229 kts | 215° |
| 2026-05-04 21:24 | 51.13934 | 1.02718 | 16349 ft | 229 kts | 215° |
| 2026-05-04 21:24 | 51.12650 | 1.01218 | 16092 ft | 229 kts | 215° |
| 2026-05-04 21:25 | 51.11368 | 0.99721 | 15839 ft | 228 kts | 214° |
| 2026-05-04 21:25 | 51.10090 | 0.98230 | 15594 ft | 228 kts | 214° |
| 2026-05-04 21:25 | 51.08830 | 0.96761 | 15472 ft | 222 kts | 214° |
| 2026-05-04 21:25 | 51.07590 | 0.95318 | 15344 ft | 220 kts | 214° |
| 2026-05-04 21:26 | 51.06370 | 0.93878 | 15214 ft | 218 kts | 217° |
| 2026-05-04 21:26 | 51.05404 | 0.92042 | 15070 ft | 218 kts | 238° |
| 2026-05-04 21:26 | 51.04748 | 0.89870 | 14960 ft | 218 kts | 243° |
| 2026-05-04 21:26 | 51.04101 | 0.87691 | 14850 ft | 217 kts | 243° |
| 2026-05-04 21:27 | 51.03455 | 0.85535 | 14709 ft | 218 kts | 243° |
| 2026-05-04 21:27 | 51.02798 | 0.83335 | 14463 ft | 223 kts | 243° |
| 2026-05-04 21:27 | 51.02127 | 0.81085 | 14181 ft | 227 kts | 243° |
| 2026-05-04 21:27 | 51.01443 | 0.78793 | 13877 ft | 231 kts | 244° |
| 2026-05-04 21:28 | 51.00773 | 0.76547 | 13555 ft | 225 kts | 244° |
| 2026-05-04 21:28 | 51.00102 | 0.74308 | 13236 ft | 219 kts | 244° |
| 2026-05-04 21:28 | 50.99451 | 0.72140 | 12922 ft | 216 kts | 244° |
| 2026-05-04 21:28 | 50.98819 | 0.70032 | 12619 ft | 213 kts | 244° |
| 2026-05-04 21:29 | 50.98186 | 0.67921 | 12315 ft | 211 kts | 244° |
| 2026-05-04 21:29 | 50.97555 | 0.65825 | 12016 ft | 210 kts | 243° |
| 2026-05-04 21:29 | 50.96918 | 0.63709 | 11714 ft | 209 kts | 244° |
| 2026-05-04 21:29 | 50.96301 | 0.61662 | 11430 ft | 208 kts | 244° |
| 2026-05-04 21:30 | 50.95678 | 0.59598 | 11143 ft | 207 kts | 244° |
| 2026-05-04 21:30 | 50.95055 | 0.57530 | 10761 ft | 210 kts | 244° |
| 2026-05-04 21:30 | 50.94422 | 0.55431 | 10351 ft | 212 kts | 244° |
| 2026-05-04 21:30 | 50.93782 | 0.53314 | 9949 ft | 213 kts | 244° |
| 2026-05-04 21:31 | 50.92499 | 0.49074 | 9115 ft | 211 kts | 244° |
| 2026-05-04 21:31 | 50.91876 | 0.47011 | 8838 ft | 205 kts | 244° |
| 2026-05-04 21:31 | 50.91440 | 0.44907 | 8568 ft | 201 kts | 263° |
| 2026-05-04 21:32 | 50.91517 | 0.42726 | 8308 ft | 198 kts | 284° |
| 2026-05-04 21:32 | 50.91854 | 0.40924 | 8095 ft | 196 kts | 287° |
| 2026-05-04 21:32 | 50.92232 | 0.38871 | 7807 ft | 197 kts | 287° |
| 2026-05-04 21:32 | 50.92610 | 0.36790 | 7543 ft | 196 kts | 287° |
| 2026-05-04 21:33 | 50.92992 | 0.34717 | 7278 ft | 195 kts | 287° |
| 2026-05-04 21:33 | 50.93371 | 0.32648 | 7022 ft | 195 kts | 287° |
| 2026-05-04 21:33 | 50.93747 | 0.30592 | 6764 ft | 194 kts | 287° |
| 2026-05-04 21:33 | 50.94114 | 0.28588 | 6510 ft | 193 kts | 287° |
| 2026-05-04 21:34 | 50.94503 | 0.26560 | 6241 ft | 191 kts | 292° |
| 2026-05-04 21:34 | 50.95220 | 0.24812 | 5996 ft | 188 kts | 310° |
| 2026-05-04 21:34 | 50.96036 | 0.23188 | 5747 ft | 188 kts | 309° |
| 2026-05-04 21:34 | 50.96839 | 0.21545 | 5497 ft | 188 kts | 309° |
| 2026-05-04 21:35 | 50.97640 | 0.19911 | 5246 ft | 188 kts | 309° |
| 2026-05-04 21:35 | 50.98432 | 0.18301 | 5003 ft | 187 kts | 310° |
| 2026-05-04 21:35 | 50.99233 | 0.16675 | 4747 ft | 186 kts | 310° |
| 2026-05-04 21:35 | 51.00042 | 0.15032 | 4498 ft | 186 kts | 309° |
| 2026-05-04 21:36 | 51.00828 | 0.13430 | 4254 ft | 186 kts | 310° |
| 2026-05-04 21:36 | 51.01534 | 0.11725 | 4015 ft | 186 kts | 295° |
| 2026-05-04 21:36 | 51.01803 | 0.09778 | 3999 ft | 177 kts | 277° |
| 2026-05-04 21:36 | 51.01874 | 0.07862 | 3985 ft | 171 kts | 277° |
| 2026-05-04 21:37 | 51.01965 | 0.05900 | 3991 ft | 185 kts | 275° |
| 2026-05-04 21:37 | 51.02058 | 0.03806 | 4007 ft | 195 kts | 276° |
| 2026-05-04 21:37 | 51.02154 | 0.01625 | 4002 ft | 202 kts | 275° |
| 2026-05-04 21:37 | 51.02251 | -0.00617 | 4006 ft | 204 kts | 276° |
| 2026-05-04 21:38 | 51.02347 | -0.02874 | 4005 ft | 202 kts | 275° |
| 2026-05-04 21:38 | 51.02439 | -0.05070 | 4000 ft | 197 kts | 275° |
| 2026-05-04 21:38 | 51.02531 | -0.07222 | 3996 ft | 195 kts | 276° |
| 2026-05-04 21:38 | 51.02622 | -0.09358 | 3995 ft | 193 kts | 275° |
| 2026-05-04 21:39 | 51.02682 | -0.10769 | 3992 ft | 193 kts | 275° |
| 2026-05-04 21:39 | 51.02771 | -0.12895 | 3991 ft | 193 kts | 275° |
| 2026-05-04 21:39 | 51.02861 | -0.15038 | 3985 ft | 192 kts | 275° |
| 2026-05-04 21:39 | 51.02948 | -0.17133 | 3985 ft | 192 kts | 275° |
| 2026-05-04 21:40 | 51.03037 | -0.19254 | 3947 ft | 194 kts | 275° |
| 2026-05-04 21:40 | 51.03127 | -0.21437 | 3843 ft | 196 kts | 275° |
| 2026-05-04 21:40 | 51.03217 | -0.23596 | 3720 ft | 196 kts | 275° |
| 2026-05-04 21:40 | 51.03304 | -0.25715 | 3593 ft | 193 kts | 275° |
| 2026-05-04 21:41 | 51.03388 | -0.27824 | 3467 ft | 186 kts | 275° |
| 2026-05-04 21:41 | 51.03468 | -0.29824 | 3342 ft | 182 kts | 276° |
| 2026-05-04 21:41 | 51.03550 | -0.31817 | 3222 ft | 181 kts | 275° |
| 2026-05-04 21:41 | 51.03630 | -0.33808 | 3106 ft | 180 kts | 275° |
| 2026-05-04 21:42 | 51.03710 | -0.35786 | 3001 ft | 177 kts | 275° |
| 2026-05-04 21:42 | 51.03784 | -0.37703 | 2998 ft | 171 kts | 275° |
| 2026-05-04 21:42 | 51.03859 | -0.39572 | 2990 ft | 169 kts | 275° |
| 2026-05-04 21:42 | 51.03934 | -0.41434 | 2986 ft | 168 kts | 275° |
| 2026-05-04 21:43 | 51.04006 | -0.43286 | 2988 ft | 168 kts | 275° |
| 2026-05-04 21:43 | 51.04079 | -0.45130 | 2989 ft | 168 kts | 275° |
| 2026-05-04 21:43 | 51.04153 | -0.46981 | 2992 ft | 167 kts | 274° |
| 2026-05-04 21:43 | 51.04223 | -0.48809 | 2985 ft | 163 kts | 275° |
| 2026-05-04 21:44 | 51.04436 | -0.50527 | 2989 ft | 156 kts | 294° |
| 2026-05-04 21:44 | 51.04984 | -0.51974 | 2994 ft | 151 kts | 313° |
| 2026-05-04 21:44 | 51.05772 | -0.53034 | 2992 ft | 147 kts | 332° |
| 2026-05-04 21:44 | 51.06707 | -0.53634 | 3012 ft | 147 kts | 349° |
| 2026-05-04 21:45 | 51.07744 | -0.53737 | 3009 ft | 152 kts | 8° |
| 2026-05-04 21:45 | 51.08770 | -0.53287 | 3011 ft | 154 kts | 26° |
| 2026-05-04 21:45 | 51.09656 | -0.52316 | 3011 ft | 155 kts | 45° |
| 2026-05-04 21:45 | 51.10258 | -0.50902 | 3007 ft | 155 kts | 63° |
| 2026-05-04 21:46 | 51.10589 | -0.49272 | 3007 ft | 155 kts | 74° |
| 2026-05-04 21:46 | 51.10854 | -0.47613 | 3003 ft | 153 kts | 76° |
| 2026-05-04 21:46 | 51.11094 | -0.45995 | 3000 ft | 149 kts | 76° |
| 2026-05-04 21:46 | 51.11313 | -0.44405 | 2994 ft | 149 kts | 77° |
| 2026-05-04 21:47 | 51.11533 | -0.42795 | 2992 ft | 149 kts | 76° |
| 2026-05-04 21:47 | 51.11758 | -0.41170 | 2835 ft | 151 kts | 77° |
| 2026-05-04 21:47 | 51.11985 | -0.39518 | 2629 ft | 154 kts | 77° |
| 2026-05-04 21:47 | 51.12214 | -0.37853 | 2425 ft | 155 kts | 76° |
| 2026-05-04 21:48 | 51.12442 | -0.36188 | 2209 ft | 153 kts | 77° |
| 2026-05-04 21:48 | 51.12676 | -0.34522 | 2001 ft | 155 kts | 77° |
| 2026-05-04 21:48 | 51.12907 | -0.32861 | 1789 ft | 153 kts | 76° |
| 2026-05-04 21:48 | 51.13131 | -0.31241 | 1574 ft | 141 kts | 77° |
| 2026-05-04 21:49 | 51.13323 | -0.29829 | 1390 ft | 122 kts | 77° |
| 2026-05-04 21:49 | 51.13496 | -0.28568 | 1236 ft | 108 kts | 77° |
| 2026-05-04 21:49 | 51.13645 | -0.27491 | 1098 ft | 90 kts | 76° |
| 2026-05-04 21:49 | 51.13787 | -0.26549 | 959 ft | 88 kts | 74° |
| 2026-05-04 21:50 | 51.13944 | -0.25582 | 811 ft | 91 kts | 77° |
| 2026-05-04 21:50 | 51.14054 | -0.24601 | 701 ft | 92 kts | 77° |
| 2026-05-04 21:50 | 51.14195 | -0.23596 | 573 ft | 93 kts | 78° |
| 2026-05-04 21:50 | 51.14324 | -0.22600 | 461 ft | 90 kts | 77° |
| 2026-05-04 21:51 | 51.14459 | -0.21639 | 409 ft | 89 kts | 76° |
| 2026-05-04 21:51 | 51.14604 | -0.20677 | 336 ft | 90 kts | 81° |
| 2026-05-04 21:51 | 51.14720 | -0.19741 | 240 ft | 83 kts | 79° |
| 2026-05-04 21:51 | 51.14830 | -0.18916 | 205 ft | 69 kts | 78° |
| 2026-05-04 21:52 | 51.14955 | -0.18483 | 200 ft | 30 kts | 52° |
| 2026-05-04 21:52 | 51.15055 | -0.18290 | 205 ft | 18 kts | 51° |
| 2026-05-04 21:52 | 51.15120 | -0.18131 | 205 ft | 20 kts | 72° |
| 2026-05-04 21:52 | 51.15151 | -0.17921 | 200 ft | 19 kts | 76° |
| 2026-05-04 21:53 | 51.15154 | -0.17788 | 205 ft | 10 kts | 130° |
| 2026-05-04 21:53 | 51.15106 | -0.17757 | 201 ft | 0 kts | 181° |
| 2026-05-04 21:54 | 51.15105 | -0.17757 | 201 ft | 0 kts | 180° |
| 2026-05-04 21:54 | 51.15088 | -0.17756 | 201 ft | 12 kts | 176° |
| 2026-05-04 21:54 | 51.14966 | -0.17718 | 210 ft | 20 kts | 168° |
| 2026-05-04 21:55 | 51.14841 | -0.17671 | 206 ft | 13 kts | 158° |
| 2026-05-04 21:55 | 51.14798 | -0.17568 | 206 ft | 14 kts | 91° |
| 2026-05-04 21:55 | 51.14795 | -0.17438 | 205 ft | 10 kts | 150° |
| 2026-05-04 21:55 | 51.14732 | -0.17394 | 203 ft | 10 kts | 131° |
| 2026-05-04 21:56 | 51.14675 | -0.17353 | 204 ft | 9 kts | 123° |
| 2026-05-04 21:56 | 51.14685 | -0.17332 | 200 ft | 0 kts | 352° |